Rotan, Texas
Current Conditions -  °F | °C
As of 9:15 PM on Saturday 22 Nov 2014 (Local Time) from KSWW Reporting Station
Clear Clear  
Wind Chill: 54°   Ceiling: Unl
Heat Index: 54°   Visibility: 10mi
Dew Point: 52°   Wind: 12mph
Humidity: 94%   Direction: 170°S
Pressure: 29.8"   Gusts: NA
Location:  32.85°N, 100.47°W
Report Text: KSWW 230315Z AUTO 17010KT 10SM CLR 12/11 A2980 RMK AO2 T01220113
Loading
Personal Weather Stations






























Interactive Weather Map New forecast layout! Learn more

10-Day Weather Forecast

Advertisements
Track Severe Weather on mobile